Terminal Aerodrome Forecast
Issued by NWS

Home | Current Version | Previous Version | Text Only | Print | Product List | Glossary On
Versions: 1 2 3 4 5 6 7 8 9 10 11 12
842
FTUS46 KPDT 290520
TAFYKM
TAF
KYKM 290520Z 2906/3006 27008KT P6SM SKC
     FM291800 15005KT P6SM FEW090=

USA.gov is the U.S. government's official web portal to all federal, state and local government web resources and services.